Time;durP1;ratioP1;P1;durP2;ratioP2;P2;SDS_P1;SDS_P2;PMS_P1;PMS_P2;Temp;Humidity;BMP_temperature;BMP_pressure;BME280_temperature;BME280_humidity;BME280_pressure;Samples;Min_cycle;Max_cycle;Signal;HPM_P1;HPM_P2
2021/10/15 00:00:50;;;;;;;16.13;14.27;;;;;;;6.74;100.00;99803.19;5087813;28;20653;-72
2021/10/15 00:03:16;;;;;;;15.57;13.32;;;;;;;6.77;100.00;99801.28;5092505;28;20238;-73
2021/10/15 00:05:43;;;;;;;16.88;12.65;;;;;;;6.76;100.00;99802.22;5074386;28;20334;-72
2021/10/15 00:08:10;;;;;;;16.67;12.48;;;;;;;6.75;100.00;99802.28;5073440;28;20610;-72
2021/10/15 00:10:36;;;;;;;21.45;16.75;;;;;;;6.85;100.00;99809.00;5077142;28;20232;-72
2021/10/15 00:13:03;;;;;;;18.17;14.57;;;;;;;6.84;100.00;99802.78;5082212;28;20596;-73
2021/10/15 00:15:31;;;;;;;25.65;18.05;;;;;;;6.88;100.00;99804.41;5076380;28;20271;-73
2021/10/15 00:17:58;;;;;;;35.38;23.13;;;;;;;6.86;100.00;99792.03;5093520;28;20532;-73
2021/10/15 00:20:25;;;;;;;31.00;22.05;;;;;;;6.92;100.00;99799.81;5082584;28;20232;-73
2021/10/15 00:22:51;;;;;;;53.45;33.17;;;;;;;7.00;100.00;99796.81;5073276;28;20273;-73
2021/10/15 00:25:18;;;;;;;34.42;22.05;;;;;;;7.09;100.00;99783.06;5072923;28;20559;-73
2021/10/15 00:27:44;;;;;;;19.13;13.65;;;;;;;6.95;100.00;99790.78;5072976;28;20191;-73
2021/10/15 00:30:11;;;;;;;16.42;12.30;;;;;;;7.09;100.00;99791.09;5072397;28;20228;-74
2021/10/15 00:32:40;;;;;;;16.63;12.38;;;;;;;7.22;100.00;99784.31;5072885;28;20691;-73
2021/10/15 00:35:07;;;;;;;16.00;12.25;;;;;;;7.02;100.00;99792.28;5080031;28;20194;-74
2021/10/15 00:37:33;;;;;;;19.38;11.57;;;;;;;7.10;100.00;99795.53;5089294;28;20283;-73
2021/10/15 00:40:01;;;;;;;13.70;12.32;;;;;;;6.99;100.00;99787.06;5092385;28;20188;-73
2021/10/15 00:42:28;;;;;;;22.48;12.93;;;;;;;6.94;100.00;99787.22;5072663;28;20193;-73
2021/10/15 00:44:54;;;;;;;15.23;12.50;;;;;;;6.98;100.00;99785.28;5072213;28;20200;-73
2021/10/15 00:47:21;;;;;;;14.60;12.90;;;;;;;6.77;100.00;99771.84;5091148;28;20185;-73
2021/10/15 00:49:49;;;;;;;13.98;11.25;;;;;;;6.73;100.00;99780.06;5092585;28;20314;-73
2021/10/15 00:52:15;;;;;;;13.75;11.15;;;;;;;6.73;100.00;99770.22;5083236;28;20203;-73
2021/10/15 00:54:43;;;;;;;16.63;12.68;;;;;;;6.72;100.00;99771.16;5072301;28;20197;-73
2021/10/15 00:57:12;;;;;;;13.68;12.25;;;;;;;6.85;100.00;99763.50;5088030;28;20214;-73
2021/10/15 00:59:40;;;;;;;14.73;11.65;;;;;;;6.77;100.00;99765.63;5072569;28;20227;-73
2021/10/15 01:02:06;;;;;;;16.55;11.73;;;;;;;6.77;100.00;99758.47;5072388;28;20193;-73
2021/10/15 01:04:34;;;;;;;14.98;11.20;;;;;;;6.60;100.00;99755.56;5072669;28;20542;-73
2021/10/15 01:07:02;;;;;;;14.75;12.15;;;;;;;6.83;100.00;99755.56;5072391;28;20200;-73
2021/10/15 01:09:30;;;;;;;15.10;12.25;;;;;;;6.89;100.00;99749.94;5076063;28;20658;-73
2021/10/15 01:11:58;;;;;;;18.90;12.25;;;;;;;6.92;100.00;99751.63;5086468;28;20203;-74
2021/10/15 01:14:24;;;;;;;18.42;12.35;;;;;;;7.06;100.00;99753.75;5071974;28;20641;-74
2021/10/15 01:16:51;;;;;;;15.25;13.05;;;;;;;6.95;100.00;99745.28;5072317;28;20279;-74
2021/10/15 01:19:18;;;;;;;15.23;12.20;;;;;;;7.12;99.88;99737.41;5072143;28;20284;-73
2021/10/15 01:21:46;;;;;;;14.77;11.75;;;;;;;7.10;98.95;99741.97;5080772;28;20698;-73
2021/10/15 01:24:14;;;;;;;16.77;11.07;;;;;;;7.15;98.62;99739.09;5072135;28;20180;-73
2021/10/15 01:26:41;;;;;;;12.75;11.20;;;;;;;7.20;98.59;99743.31;5072327;28;20646;-73
2021/10/15 01:29:08;;;;;;;14.88;12.18;;;;;;;7.24;97.51;99738.72;5071880;28;20689;-73
2021/10/15 01:31:36;;;;;;;16.33;12.50;;;;;;;7.31;97.85;99737.50;5091042;28;20196;-73
2021/10/15 01:34:03;;;;;;;21.60;14.20;;;;;;;7.33;98.22;99727.63;5093030;28;20240;-73
2021/10/15 01:36:30;;;;;;;23.65;16.52;;;;;;;7.22;99.70;99733.41;5093786;28;20199;-73
2021/10/15 01:38:58;;;;;;;23.48;16.40;;;;;;;7.19;100.00;99730.88;5096450;28;20206;-72
2021/10/15 01:41:24;;;;;;;24.17;16.75;;;;;;;7.46;100.00;99720.78;5095788;28;20735;-72
2021/10/15 01:43:51;;;;;;;29.48;17.70;;;;;;;7.53;100.00;99726.75;5095350;28;20204;-74
2021/10/15 01:46:17;;;;;;;25.08;17.90;;;;;;;7.59;99.87;99714.88;5085460;28;20218;-72
2021/10/15 01:48:45;;;;;;;22.83;16.70;;;;;;;7.56;99.50;99713.22;5075659;28;20195;-73
2021/10/15 01:51:11;;;;;;;22.75;16.40;;;;;;;7.44;100.00;99711.06;5085134;28;20209;-72
2021/10/15 01:53:38;;;;;;;22.27;15.32;;;;;;;7.46;98.95;99710.06;5095889;28;20294;-72
2021/10/15 01:56:06;;;;;;;16.92;13.95;;;;;;;7.41;99.14;99708.50;5082786;28;20281;-72
2021/10/15 01:58:32;;;;;;;21.20;14.35;;;;;;;7.41;98.92;99697.81;5075389;28;20185;-73
2021/10/15 02:00:59;;;;;;;19.38;14.70;;;;;;;7.43;98.89;99696.78;5075679;28;20195;-73
2021/10/15 02:03:26;;;;;;;24.02;15.02;;;;;;;7.46;99.58;99695.78;5075822;28;20189;-73
2021/10/15 02:05:53;;;;;;;21.67;15.45;;;;;;;7.46;100.00;99695.78;5075578;28;20639;-73
2021/10/15 02:08:19;;;;;;;23.23;15.50;;;;;;;7.51;98.69;99704.50;5075570;28;20182;-72
2021/10/15 02:10:46;;;;;;;25.77;15.38;;;;;;;7.76;95.81;99687.34;5075120;28;20225;-75
2021/10/15 02:13:14;;;;;;;28.45;15.32;;;;;;;7.56;97.40;99697.13;5088828;28;20185;-72
2021/10/15 02:15:40;;;;;;;25.27;15.63;;;;;;;7.48;96.80;99693.91;5095544;28;20542;-71
2021/10/15 02:18:07;;;;;;;22.42;14.65;;;;;;;7.40;96.73;99690.72;5095901;28;20207;-72
2021/10/15 02:20:34;;;;;;;33.20;15.57;;;;;;;7.18;97.95;99688.94;5095263;28;20542;-72
2021/10/15 02:23:01;;;;;;;21.23;15.27;;;;;;;7.28;98.04;99697.44;5094742;28;20188;-71
2021/10/15 02:25:29;;;;;;;21.58;15.23;;;;;;;7.22;97.67;99685.22;5093922;28;20275;-73
2021/10/15 02:27:57;;;;;;;24.02;16.50;;;;;;;7.23;97.53;99678.03;5095542;28;20531;-74
2021/10/15 02:30:24;;;;;;;24.92;15.23;;;;;;;7.25;97.81;99677.03;5094695;28;20226;-73
2021/10/15 02:32:51;;;;;;;20.95;14.00;;;;;;;7.36;97.80;99686.41;5095064;28;20196;-72
2021/10/15 02:35:19;;;;;;;24.73;14.85;;;;;;;7.32;97.83;99678.50;5085723;28;20193;-73
2021/10/15 02:37:46;;;;;;;21.30;15.10;;;;;;;7.38;97.84;99676.50;5074811;28;20189;-73
2021/10/15 02:40:13;;;;;;;17.80;13.75;;;;;;;7.55;96.74;99673.06;5074960;28;20639;-73
2021/10/15 02:42:39;;;;;;;21.42;15.95;;;;;;;7.64;95.72;99670.88;5074805;28;20196;-73
2021/10/15 02:45:08;;;;;;;22.75;14.65;;;;;;;7.69;95.21;99670.66;5079157;28;20554;-73
2021/10/15 02:47:36;;;;;;;17.98;13.88;;;;;;;7.55;96.23;99663.22;5092295;28;20630;-73
2021/10/15 02:50:05;;;;;;;19.90;14.55;;;;;;;7.65;95.51;99669.94;5091268;28;20658;-72
2021/10/15 02:52:31;;;;;;;22.52;14.93;;;;;;;7.55;96.48;99668.56;5094579;28;20287;-73
2021/10/15 02:54:58;;;;;;;21.95;15.40;;;;;;;7.64;96.19;99664.63;5092983;28;20202;-73
2021/10/15 02:57:25;;;;;;;23.65;15.60;;;;;;;7.72;95.42;99668.69;5076697;28;20280;-73
2021/10/15 02:59:51;;;;;;;21.00;15.63;;;;;;;7.65;95.48;99672.59;5074738;28;20271;-73
2021/10/15 03:02:18;;;;;;;21.70;14.13;;;;;;;7.73;95.27;99672.25;5077696;28;20258;-72
2021/10/15 03:04:46;;;;;;;24.67;15.38;;;;;;;7.73;94.79;99662.41;5088560;28;20185;-71
2021/10/15 03:07:13;;;;;;;20.25;15.15;;;;;;;7.59;95.27;99656.78;5075481;28;20194;-72
2021/10/15 03:09:39;;;;;;;23.88;16.08;;;;;;;7.51;96.83;99656.28;5074163;28;20196;-74
2021/10/15 03:12:06;;;;;;;29.92;15.13;;;;;;;7.51;96.82;99657.16;5078602;28;20207;-72
2021/10/15 03:14:33;;;;;;;28.42;14.95;;;;;;;7.48;97.17;99664.44;5085476;28;20623;-72
2021/10/15 03:17:00;;;;;;;31.90;14.70;;;;;;;7.34;97.60;99666.88;5075397;28;20534;-72
2021/10/15 03:19:27;;;;;;;39.25;15.40;;;;;;;7.20;97.97;99657.63;5079880;28;20203;-73
2021/10/15 03:21:55;;;;;;;27.73;15.30;;;;;;;7.24;97.75;99664.59;5098285;28;20276;-73
2021/10/15 03:24:21;;;;;;;31.10;14.90;;;;;;;6.99;98.38;99653.19;5086380;28;20191;-73
2021/10/15 03:26:48;;;;;;;23.58;14.45;;;;;;;6.93;98.46;99662.34;5092761;28;20642;-74
2021/10/15 03:29:14;;;;;;;31.77;14.30;;;;;;;6.87;99.38;99652.78;5092701;28;20314;-74
2021/10/15 03:31:41;;;;;;;31.08;15.80;;;;;;;7.05;97.96;99659.13;5077953;28;20210;-74
2021/10/15 03:34:08;;;;;;;22.63;13.75;;;;;;;6.99;97.61;99664.78;5077857;28;20200;-73
2021/10/15 03:36:34;;;;;;;18.85;14.45;;;;;;;6.92;98.68;99660.63;5093789;28;20699;-74
2021/10/15 03:39:03;;;;;;;19.00;14.20;;;;;;;7.05;97.71;99653.78;5077189;28;20191;-73
2021/10/15 03:41:29;;;;;;;19.08;14.43;;;;;;;7.05;97.37;99653.78;5082421;28;20191;-73
2021/10/15 03:43:56;;;;;;;18.35;14.00;;;;;;;7.06;97.39;99658.22;5081925;28;20291;-73
2021/10/15 03:46:23;;;;;;;22.80;15.75;;;;;;;7.13;96.99;99647.25;5093286;28;20180;-74
2021/10/15 03:48:49;;;;;;;26.20;15.25;;;;;;;7.13;96.91;99649.94;5090969;28;20210;-74
2021/10/15 03:51:16;;;;;;;42.95;15.30;;;;;;;7.04;97.21;99646.69;5114110;28;20211;-73
2021/10/15 03:53:42;;;;;;;22.20;16.05;;;;;;;7.13;97.72;99649.94;5081161;28;20193;-73
2021/10/15 03:56:10;;;;;;;27.90;15.20;;;;;;;7.12;97.35;99659.75;5079632;28;20193;-74
2021/10/15 03:58:37;;;;;;;23.48;15.25;;;;;;;7.05;98.58;99655.59;5082702;28;20197;-73
2021/10/15 04:01:04;;;;;;;23.20;15.30;;;;;;;7.06;97.71;99660.03;5084529;28;20626;-74
2021/10/15 04:03:30;;;;;;;20.92;16.08;;;;;;;7.05;99.27;99658.28;5093060;28;20291;-73
2021/10/15 04:05:57;;;;;;;21.13;15.43;;;;;;;7.24;97.24;99653.00;5087458;28;20289;-73
2021/10/15 04:08:24;;;;;;;22.10;14.25;;;;;;;7.30;96.10;99655.41;5090399;28;20199;-73
2021/10/15 04:10:51;;;;;;;25.80;15.27;;;;;;;7.24;96.42;99647.66;5091318;28;20677;-73
2021/10/15 04:13:18;;;;;;;23.08;14.82;;;;;;;7.22;96.65;99653.06;5086151;28;20645;-74
2021/10/15 04:15:45;;;;;;;24.45;17.33;;;;;;;7.09;97.59;99650.03;5082399;28;20191;-73
2021/10/15 04:18:12;;;;;;;23.48;14.93;;;;;;;6.94;98.72;99644.47;5078305;28;20323;-73
2021/10/15 04:20:39;;;;;;;19.40;14.32;;;;;;;6.80;100.00;99639.72;5092179;28;20648;-73
2021/10/15 04:23:06;;;;;;;24.08;16.08;;;;;;;6.96;100.00;99637.25;5091450;28;20220;-74
2021/10/15 04:25:33;;;;;;;21.83;14.75;;;;;;;6.83;100.00;99642.28;5090503;28;20192;-73
2021/10/15 04:27:59;;;;;;;19.55;14.45;;;;;;;6.67;100.00;99642.91;5073607;28;20639;-74
2021/10/15 04:30:27;;;;;;;19.30;13.95;;;;;;;6.81;100.00;99639.66;5084809;28;20256;-73
2021/10/15 04:32:54;;;;;;;16.70;13.15;;;;;;;6.82;99.84;99635.16;5089300;28;20188;-73
2021/10/15 04:35:20;;;;;;;17.75;15.15;;;;;;;6.80;99.19;99629.88;5078021;28;20193;-73
2021/10/15 04:37:47;;;;;;;19.90;14.10;;;;;;;6.70;99.16;99628.53;5083506;28;20202;-73
2021/10/15 04:40:13;;;;;;;15.05;12.13;;;;;;;6.88;97.49;99625.06;5077836;28;20220;-74
2021/10/15 04:42:40;;;;;;;29.90;15.05;;;;;;;6.80;97.36;99627.19;5084920;28;20500;-74
2021/10/15 04:45:08;;;;;;;18.40;13.85;;;;;;;6.77;97.77;99631.81;5079001;28;20550;-73
2021/10/15 04:47:36;;;;;;;22.55;14.25;;;;;;;6.56;98.54;99634.44;5091431;28;20200;-72
2021/10/15 04:50:04;;;;;;;15.37;13.33;;;;;;;6.45;100.00;99631.34;5083913;28;20187;-73
2021/10/15 04:52:30;;;;;;;28.40;14.95;;;;;;;6.55;97.96;99630.03;5081540;28;20265;-72
2021/10/15 04:54:57;;;;;;;21.23;14.20;;;;;;;6.65;97.41;99641.22;5090401;28;20571;-73
2021/10/15 04:57:24;;;;;;;36.25;16.45;;;;;;;6.50;98.73;99645.41;5072189;28;20188;-73
2021/10/15 04:59:51;;;;;;;22.30;15.50;;;;;;;6.67;99.54;99648.25;5076688;28;20279;-73
2021/10/15 05:02:17;;;;;;;28.63;16.25;;;;;;;6.78;98.74;99634.41;5089201;28;20184;-72
2021/10/15 05:04:46;;;;;;;22.42;17.45;;;;;;;6.71;98.79;99635.59;5082225;28;20211;-74
2021/10/15 05:07:13;;;;;;;24.77;17.90;;;;;;;6.82;98.90;99633.34;5073097;28;20511;-74
2021/10/15 05:09:41;;;;;;;24.20;16.17;;;;;;;6.87;98.16;99622.44;5072234;28;20192;-73
2021/10/15 05:12:14;;;;;;;27.95;17.02;;;;;;;6.68;98.56;99614.34;5072606;28;20227;-73
2021/10/15 05:14:42;;;;;;;27.27;17.48;;;;;;;6.64;99.88;99618.94;5071929;28;20192;-72
2021/10/15 05:17:09;;;;;;;29.10;18.27;;;;;;;6.47;100.00;99611.63;5090673;28;20199;-74
2021/10/15 05:19:36;;;;;;;28.48;19.48;;;;;;;6.56;100.00;99620.22;5088418;28;20195;-73
2021/10/15 05:22:04;;;;;;;25.60;16.08;;;;;;;6.46;100.00;99615.22;5090056;28;20215;-74
2021/10/15 05:24:31;;;;;;;17.98;14.68;;;;;;;6.34;100.00;99610.38;5089512;28;20199;-73
2021/10/15 05:26:58;;;;;;;22.90;17.05;;;;;;;6.27;100.00;99614.25;5089656;28;20188;-73
2021/10/15 05:29:25;;;;;;;25.52;17.73;;;;;;;6.56;100.00;99604.16;5087516;28;20246;-75
2021/10/15 05:31:52;;;;;;;34.70;18.08;;;;;;;6.47;100.00;99608.09;5089545;28;20204;-73
2021/10/15 05:34:19;;;;;;;23.75;16.48;;;;;;;6.57;100.00;99600.53;5089235;28;20206;-74
2021/10/15 05:36:45;;;;;;;26.50;15.75;;;;;;;6.50;99.64;99596.38;5091372;28;20199;-73
2021/10/15 05:39:14;;;;;;;23.67;17.10;;;;;;;6.45;100.00;99600.13;5090113;28;20200;-73
2021/10/15 05:41:40;;;;;;;22.05;16.00;;;;;;;6.55;100.00;99589.88;5089488;28;20537;-73
2021/10/15 05:44:07;;;;;;;30.38;17.75;;;;;;;6.48;100.00;99597.31;5089388;28;20210;-72
2021/10/15 05:46:34;;;;;;;29.13;17.38;;;;;;;6.56;100.00;99597.00;5088837;28;20192;-75
2021/10/15 05:49:00;;;;;;;25.50;18.38;;;;;;;6.60;100.00;99593.28;5088498;28;20196;-73
2021/10/15 05:51:27;;;;;;;30.40;21.35;;;;;;;6.59;100.00;99602.22;5088735;28;20323;-72
2021/10/15 05:53:57;;;;;;;33.15;20.58;;;;;;;6.77;100.00;99595.22;5090432;28;20196;-72
2021/10/15 05:59:10;;;;;;;25.67;17.10;;;;;;;6.58;99.09;99610.28;5089682;28;20211;-73
2021/10/15 06:01:37;;;;;;;21.75;14.88;;;;;;;6.57;99.53;99604.06;5090497;28;20192;-72
2021/10/15 06:15:04;;;;;;;22.33;15.98;;;;;;;6.82;98.27;99606.59;5088630;28;20561;-72
2021/10/15 06:17:30;;;;;;;22.63;15.18;;;;;;;6.75;98.06;99610.47;5089811;28;20196;-73
2021/10/15 06:19:57;;;;;;;22.55;15.35;;;;;;;6.65;98.94;99607.31;5088389;28;20253;-72
2021/10/15 06:22:26;;;;;;;22.00;17.52;;;;;;;7.00;97.25;99620.13;5093153;28;20635;-73
2021/10/15 06:24:53;;;;;;;27.13;18.60;;;;;;;6.97;96.85;99618.47;5089696;28;20282;-72
2021/10/15 06:27:23;;;;;;;26.38;16.13;;;;;;;6.91;96.24;99618.72;5092499;28;20203;-73
2021/10/15 06:29:50;;;;;;;19.42;14.85;;;;;;;6.70;97.78;99631.19;5092045;28;20245;-73
2021/10/15 06:32:17;;;;;;;20.83;15.73;;;;;;;6.68;98.45;99620.56;5092878;28;20208;-73
2021/10/15 06:34:44;;;;;;;22.60;15.32;;;;;;;6.60;99.30;99636.06;5093483;28;20199;-73
2021/10/15 06:37:11;;;;;;;27.73;15.00;;;;;;;6.75;97.76;99639.03;5093792;28;20195;-73
2021/10/15 06:39:37;;;;;;;21.60;15.68;;;;;;;6.81;97.25;99633.44;5093361;28;20552;-73
2021/10/15 06:42:04;;;;;;;21.63;15.70;;;;;;;6.96;96.31;99631.91;5091959;28;20210;-73
2021/10/15 06:44:32;;;;;;;18.38;13.93;;;;;;;7.27;94.88;99634.13;5091258;28;20192;-73
2021/10/15 06:46:59;;;;;;;28.63;16.55;;;;;;;7.37;92.26;99632.78;5092299;28;20195;-72
2021/10/15 06:49:25;;;;;;;17.15;13.70;;;;;;;7.47;91.24;99635.91;5088177;28;20199;-73
2021/10/15 06:51:52;;;;;;;23.00;15.27;;;;;;;7.48;91.12;99641.22;5092072;28;20227;-72
2021/10/15 06:54:19;;;;;;;19.92;16.30;;;;;;;7.73;90.36;99642.75;5090889;28;20188;-74
2021/10/15 06:56:46;;;;;;;20.27;16.02;;;;;;;7.85;89.73;99649.41;5092587;28;20195;-73
2021/10/15 06:59:12;;;;;;;26.35;16.10;;;;;;;7.73;89.88;99651.69;5092630;28;20207;-72
2021/10/15 07:01:40;;;;;;;28.95;18.70;;;;;;;7.98;89.16;99653.22;5090884;28;20641;-73
2021/10/15 07:04:07;;;;;;;18.40;14.13;;;;;;;8.13;86.07;99640.91;5092574;28;20681;-72
2021/10/15 07:06:35;;;;;;;16.88;14.45;;;;;;;7.97;85.95;99648.81;5092515;28;20199;-72
2021/10/15 07:09:03;;;;;;;18.02;12.70;;;;;;;7.86;86.43;99640.41;5093917;28;20206;-73
2021/10/15 07:11:30;;;;;;;16.70;14.30;;;;;;;7.93;86.70;99653.44;5092757;28;20224;-73
2021/10/15 07:13:57;;;;;;;24.00;15.48;;;;;;;8.01;87.48;99645.06;5092234;28;20910;-74
2021/10/15 07:16:24;;;;;;;22.85;17.33;;;;;;;8.02;86.91;99635.19;5092769;28;20210;-74
2021/10/15 07:18:52;;;;;;;21.67;17.00;;;;;;;7.89;87.42;99643.81;5092275;28;20555;-73
2021/10/15 07:21:18;;;;;;;19.13;14.60;;;;;;;7.87;88.08;99634.97;5092511;28;20196;-73
2021/10/15 07:23:45;;;;;;;19.30;14.98;;;;;;;8.07;86.78;99630.47;5091199;28;20210;-73
2021/10/15 07:26:11;;;;;;;23.27;15.77;;;;;;;8.00;87.35;99629.88;5091649;28;20224;-73
2021/10/15 07:28:38;;;;;;;24.75;15.80;;;;;;;7.76;88.44;99629.25;5091624;28;20227;-73
2021/10/15 07:31:05;;;;;;;22.23;16.88;;;;;;;7.89;87.47;99627.75;5092695;28;20204;-74
2021/10/15 07:33:31;;;;;;;26.92;17.80;;;;;;;7.94;88.39;99628.38;5090724;28;20204;-73
2021/10/15 07:35:59;;;;;;;29.45;20.10;;;;;;;8.25;86.78;99644.81;5091547;28;20200;-74
2021/10/15 07:38:26;;;;;;;28.58;19.88;;;;;;;8.15;86.81;99637.22;5092926;28;20558;-73
2021/10/15 07:40:52;;;;;;;27.23;19.05;;;;;;;8.40;85.22;99644.13;5091940;28;20207;-72
2021/10/15 07:43:19;;;;;;;26.63;19.40;;;;;;;8.46;84.87;99635.78;5092647;28;20236;-72
2021/10/15 07:45:46;;;;;;;29.38;19.65;;;;;;;8.50;83.99;99639.16;5093129;28;20236;-73
2021/10/15 07:48:12;;;;;;;27.15;18.80;;;;;;;8.39;84.41;99645.03;5093275;28;20281;-72
2021/10/15 07:50:39;;;;;;;37.22;20.55;;;;;;;8.42;83.78;99646.75;5091690;28;20208;-73
2021/10/15 07:53:07;;;;;;;32.35;20.42;;;;;;;8.30;85.33;99646.34;5091128;28;20221;-72
2021/10/15 07:55:34;;;;;;;28.95;21.30;;;;;;;8.65;84.16;99645.59;5092133;28;20309;-73
2021/10/15 07:58:01;;;;;;;29.95;20.20;;;;;;;8.90;82.62;99646.13;5091992;28;20205;-73
2021/10/15 08:00:27;;;;;;;34.00;22.00;;;;;;;8.56;83.69;99654.97;5091047;28;20536;-74
2021/10/15 08:02:55;;;;;;;35.00;23.02;;;;;;;8.57;84.39;99659.41;5091341;28;20197;-72
2021/10/15 08:05:22;;;;;;;34.40;23.15;;;;;;;8.66;84.31;99658.06;5091844;28;20297;-73
2021/10/15 08:07:49;;;;;;;33.22;23.10;;;;;;;8.74;83.82;99661.25;5091242;28;20199;-73
2021/10/15 08:10:17;;;;;;;34.63;22.25;;;;;;;9.15;82.01;99652.91;5092271;28;20292;-74
2021/10/15 08:12:44;;;;;;;33.50;22.27;;;;;;;9.26;81.52;99652.38;5091738;28;20226;-74
2021/10/15 08:15:12;;;;;;;39.00;24.23;;;;;;;9.26;81.32;99661.28;5092462;28;20506;-72
2021/10/15 08:17:39;;;;;;;38.28;24.52;;;;;;;9.25;81.05;99651.50;5091202;28;20197;-72
2021/10/15 08:20:07;;;;;;;28.63;21.17;;;;;;;9.26;81.02;99649.69;5092214;28;20281;-72
2021/10/15 08:22:34;;;;;;;30.45;22.63;;;;;;;9.10;81.90;99652.31;5091733;28;20280;-72
2021/10/15 08:25:01;;;;;;;28.88;20.80;;;;;;;9.07;82.75;99649.78;5090623;28;20198;-73
2021/10/15 08:27:29;;;;;;;31.90;23.25;;;;;;;9.18;82.03;99655.47;5091047;28;20242;-72
2021/10/15 08:29:55;;;;;;;34.65;23.38;;;;;;;9.00;83.57;99656.38;5090419;28;20662;-73
2021/10/15 08:32:22;;;;;;;31.60;22.50;;;;;;;9.44;82.12;99667.53;5091506;28;20240;-73
2021/10/15 08:34:48;;;;;;;31.52;21.95;;;;;;;9.63;81.15;99659.34;5091503;28;20651;-72
2021/10/15 08:37:15;;;;;;;37.25;23.35;;;;;;;9.58;81.28;99664.97;5092526;28;20293;-72
2021/10/15 08:39:42;;;;;;;33.03;22.23;;;;;;;9.56;81.38;99661.50;5092559;28;20251;-72
2021/10/15 08:42:10;;;;;;;28.65;18.33;;;;;;;9.47;81.17;99656.63;5092402;28;20290;-71
2021/10/15 08:44:41;;;;;;;24.83;18.75;;;;;;;9.82;80.73;99654.75;5091954;28;20284;-72
2021/10/15 08:47:08;;;;;;;28.48;18.40;;;;;;;10.30;78.13;99659.38;5092310;28;20643;-74
2021/10/15 08:49:36;;;;;;;27.17;18.80;;;;;;;10.64;76.06;99659.19;5091387;28;20286;-71
2021/10/15 08:52:02;;;;;;;22.63;18.15;;;;;;;10.74;75.62;99661.34;5090360;28;20261;-73
2021/10/15 08:54:31;;;;;;;26.77;20.02;;;;;;;10.58;75.93;99659.56;5092199;28;21578;-73
2021/10/15 08:56:58;;;;;;;22.92;17.50;;;;;;;10.35;76.55;99657.28;5092298;28;20222;-72
2021/10/15 08:59:39;;;;;;;19.95;16.80;;;;;;;10.17;78.43;99651.94;5091603;28;20214;-72
2021/10/15 09:02:14;;;;;;;25.27;18.63;;;;;;;9.98;79.16;99654.78;5091646;28;20211;-73
2021/10/15 09:04:49;;;;;;;24.88;17.85;;;;;;;9.65;82.11;99641.31;5089589;28;20210;-71
2021/10/15 09:07:19;;;;;;;21.20;16.63;;;;;;;10.20;79.99;99630.25;5090374;28;20401;-73
2021/10/15 09:09:47;;;;;;;24.10;17.95;;;;;;;10.24;80.28;99639.00;5090307;28;20241;-73
2021/10/15 09:12:16;;;;;;;17.80;14.18;;;;;;;10.42;79.58;99642.50;5091535;28;20228;-73
2021/10/15 09:14:46;;;;;;;18.58;14.23;;;;;;;10.68;77.51;99641.03;5087787;28;20233;-74
2021/10/15 09:17:16;;;;;;;17.02;13.93;;;;;;;10.77;76.98;99650.41;5088670;28;20222;-73
2021/10/15 09:19:44;;;;;;;20.05;15.07;;;;;;;10.76;76.96;99656.72;5091647;28;20639;-72
2021/10/15 09:22:20;;;;;;;18.77;14.10;;;;;;;10.53;78.19;99658.91;5091146;28;20210;-71
2021/10/15 09:24:52;;;;;;;34.47;24.92;;;;;;;10.51;79.04;99659.97;5089076;28;20639;-72
2021/10/15 09:27:22;;;;;;;21.48;15.13;;;;;;;10.82;77.17;99661.78;5089200;28;20195;-72
2021/10/15 09:29:54;;;;;;;20.83;16.50;;;;;;;11.16;75.79;99662.47;5090916;28;20337;-72
2021/10/15 09:32:22;;;;;;;18.13;14.50;;;;;;;11.55;73.35;99664.59;5091732;28;20748;-74
2021/10/15 09:34:49;;;;;;;22.15;14.10;;;;;;;11.79;72.71;99670.31;5091292;28;20214;-73
2021/10/15 09:37:19;;;;;;;18.92;14.35;;;;;;;12.01;71.41;99672.56;5086958;28;20283;-73
2021/10/15 09:39:46;;;;;;;17.85;14.77;;;;;;;12.12;70.95;99668.31;5090496;28;20280;-74
2021/10/15 09:42:23;;;;;;;20.05;15.40;;;;;;;12.35;70.09;99673.13;5090804;28;20206;-72
2021/10/15 09:44:52;;;;;;;17.52;13.93;;;;;;;12.54;69.79;99677.34;5089254;28;20229;-73
2021/10/15 09:47:23;;;;;;;16.42;13.80;;;;;;;12.86;68.83;99686.03;5087464;28;20343;-72
2021/10/15 09:49:52;;;;;;;19.77;15.05;;;;;;;12.90;67.91;99682.16;5090253;28;20205;-73
2021/10/15 09:52:33;;;;;;;17.67;14.23;;;;;;;13.03;67.58;99676.81;5087607;28;20221;-73
2021/10/15 09:55:03;;;;;;;20.50;14.40;;;;;;;13.05;67.01;99672.16;5086590;28;20227;-72
2021/10/15 09:57:32;;;;;;;19.33;14.75;;;;;;;13.26;67.09;99675.25;5091588;28;20293;-75
2021/10/15 10:00:00;;;;;;;15.52;13.75;;;;;;;13.20;67.03;99664.84;5087984;28;20666;-75
2021/10/15 10:02:28;;;;;;;15.68;13.30;;;;;;;13.30;66.77;99672.25;5089619;28;20291;-74
2021/10/15 10:04:56;;;;;;;22.15;15.55;;;;;;;13.29;66.87;99658.84;5092042;28;20197;-73
2021/10/15 10:07:24;;;;;;;17.67;15.32;;;;;;;13.23;66.94;99661.91;5092353;28;20268;-74
2021/10/15 10:09:51;;;;;;;18.48;15.88;;;;;;;13.52;66.78;99666.25;5088093;28;20192;-72
2021/10/15 10:12:19;;;;;;;20.90;16.60;;;;;;;14.01;65.97;99663.78;5088350;28;20228;-73
2021/10/15 10:14:46;;;;;;;18.20;14.95;;;;;;;14.44;63.06;99666.94;5092622;28;20204;-73
2021/10/15 10:17:22;;;;;;;16.83;14.70;;;;;;;14.23;63.18;99655.84;5091633;28;20197;-74
2021/10/15 10:19:53;;;;;;;18.98;16.10;;;;;;;13.91;64.70;99658.16;5092654;28;20199;-72
2021/10/15 10:22:21;;;;;;;16.15;14.45;;;;;;;13.83;65.13;99647.84;5092414;28;20194;-72
2021/10/15 10:24:52;;;;;;;18.67;13.57;;;;;;;13.54;66.17;99655.31;5093298;28;20209;-72
2021/10/15 10:27:31;;;;;;;18.25;15.48;;;;;;;13.28;67.17;99665.22;5093555;28;20203;-73
2021/10/15 10:29:58;;;;;;;18.83;15.43;;;;;;;13.68;66.51;99651.63;5090004;28;20235;-73
2021/10/15 10:32:28;;;;;;;18.83;15.65;;;;;;;13.83;66.21;99647.00;5086998;28;20754;-74
2021/10/15 10:34:55;;;;;;;18.33;13.88;;;;;;;14.02;65.80;99651.94;5093388;28;20197;-73
2021/10/15 10:37:22;;;;;;;19.95;15.38;;;;;;;14.22;65.42;99648.66;5091268;28;20195;-74
2021/10/15 10:40:06;;;;;;;19.48;15.55;;;;;;;13.69;66.80;99647.97;5088589;28;20301;-74
2021/10/15 10:42:33;;;;;;;17.48;13.88;;;;;;;13.72;66.60;99643.19;5089797;28;20184;-75
2021/10/15 10:45:13;;;;;;;28.05;17.65;;;;;;;14.11;66.36;99645.88;5091584;28;20618;-73
2021/10/15 10:48:03;;;;;;;17.08;14.77;;;;;;;14.30;65.15;99640.00;5092782;28;20987;-72
2021/10/15 10:50:31;;;;;;;18.05;15.27;;;;;;;14.35;65.09;99635.09;5093694;28;20295;-71
2021/10/15 10:53:07;;;;;;;18.10;15.00;;;;;;;14.57;65.13;99629.88;5091167;28;20251;-73
2021/10/15 10:55:39;;;;;;;23.25;16.50;;;;;;;14.51;64.68;99626.72;5091203;28;20285;-73
2021/10/15 10:58:31;;;;;;;19.15;14.82;;;;;;;14.69;64.10;99617.25;5093404;28;20226;-71
2021/10/15 11:01:25;;;;;;;18.85;14.23;;;;;;;14.43;65.53;99624.59;5092111;28;20198;-72
2021/10/15 11:03:53;;;;;;;17.48;15.23;;;;;;;14.98;63.81;99630.47;5093390;28;20248;-73
2021/10/15 11:06:20;;;;;;;14.10;12.70;;;;;;;15.23;62.47;99626.72;5092501;28;20207;-72
2021/10/15 11:08:47;;;;;;;21.38;14.98;;;;;;;15.36;62.07;99635.66;5094380;28;20259;-74
2021/10/15 11:11:50;;;;;;;16.45;14.27;;;;;;;15.14;63.08;99633.72;5090431;28;20213;-72
2021/10/15 11:14:25;;;;;;;15.25;13.75;;;;;;;15.20;62.99;99627.84;5092129;28;21002;-73
2021/10/15 11:16:51;;;;;;;19.13;14.02;;;;;;;15.29;62.52;99628.13;5092887;28;20188;-73
2021/10/15 11:19:20;;;;;;;15.90;14.30;;;;;;;15.35;62.57;99620.38;5091784;28;20214;-73
2021/10/15 11:22:00;;;;;;;17.45;14.63;;;;;;;15.57;62.36;99624.97;5091639;28;20203;-73
2021/10/15 11:24:26;;;;;;;21.45;13.85;;;;;;;15.64;61.85;99618.06;5092940;28;20188;-74
2021/10/15 11:26:54;;;;;;;14.85;13.25;;;;;;;15.85;61.29;99620.09;5089643;28;20201;-74
2021/10/15 11:29:21;;;;;;;21.15;16.80;;;;;;;15.79;61.40;99609.75;5090647;28;20228;-74
2021/10/15 11:31:53;;;;;;;14.48;12.98;;;;;;;15.87;61.30;99611.84;5092483;28;20210;-73
2021/10/15 11:34:22;;;;;;;17.60;13.88;;;;;;;16.02;60.90;99606.03;5089140;28;20215;-75
2021/10/15 11:36:59;;;;;;;19.75;15.27;;;;;;;15.94;61.27;99608.53;5091768;28;20206;-72
2021/10/15 11:39:26;;;;;;;15.00;13.02;;;;;;;15.41;62.31;99600.03;5089596;28;20206;-72